sensor_id;sensor_type;location;lat;lon;timestamp;temperature;humidity
12370;DHT22;6249;52.128;9.986;2023-04-03T00:00:05;2.20;99.90
12370;DHT22;6249;52.128;9.986;2023-04-03T00:03:25;2.00;99.90
12370;DHT22;6249;52.128;9.986;2023-04-03T00:06:46;2.00;99.90
12370;DHT22;6249;52.128;9.986;2023-04-03T00:10:07;1.90;99.90
12370;DHT22;6249;52.128;9.986;2023-04-03T00:13:28;1.80;99.90
12370;DHT22;6249;52.128;9.986;2023-04-03T00:16:51;1.70;99.90
12370;DHT22;6249;52.128;9.986;2023-04-03T00:20:11;1.60;99.90
12370;DHT22;6249;52.128;9.986;2023-04-03T00:23:35;1.50;99.90
12370;DHT22;6249;52.128;9.986;2023-04-03T00:26:55;1.40;99.90
12370;DHT22;6249;52.128;9.986;2023-04-03T00:30:20;1.30;99.90
12370;DHT22;6249;52.128;9.986;2023-04-03T00:33:41;1.30;99.90
12370;DHT22;6249;52.128;9.986;2023-04-03T00:37:02;1.20;99.90
12370;DHT22;6249;52.128;9.986;2023-04-03T00:40:24;1.10;99.90
12370;DHT22;6249;52.128;9.986;2023-04-03T00:43:45;0.90;99.90
12370;DHT22;6249;52.128;9.986;2023-04-03T00:47:08;0.90;99.90
12370;DHT22;6249;52.128;9.986;2023-04-03T00:50:30;0.90;99.90
12370;DHT22;6249;52.128;9.986;2023-04-03T00:53:59;0.90;99.90
12370;DHT22;6249;52.128;9.986;2023-04-03T00:57:21;1.00;99.90
12370;DHT22;6249;52.128;9.986;2023-04-03T01:00:50;1.00;99.90
12370;DHT22;6249;52.128;9.986;2023-04-03T01:04:35;0.90;99.90
12370;DHT22;6249;52.128;9.986;2023-04-03T01:07:59;0.80;99.90
12370;DHT22;6249;52.128;9.986;2023-04-03T01:11:22;0.70;99.90
12370;DHT22;6249;52.128;9.986;2023-04-03T01:14:53;0.80;99.90
12370;DHT22;6249;52.128;9.986;2023-04-03T01:18:14;0.80;99.90
12370;DHT22;6249;52.128;9.986;2023-04-03T01:25:05;0.70;99.90
12370;DHT22;6249;52.128;9.986;2023-04-03T01:28:32;0.70;99.90
12370;DHT22;6249;52.128;9.986;2023-04-03T01:31:56;0.60;99.90
12370;DHT22;6249;52.128;9.986;2023-04-03T01:35:19;0.60;99.90
12370;DHT22;6249;52.128;9.986;2023-04-03T01:38:42;0.60;99.90
12370;DHT22;6249;52.128;9.986;2023-04-03T01:42:03;0.60;99.90
12370;DHT22;6249;52.128;9.986;2023-04-03T01:45:26;0.50;99.90
12370;DHT22;6249;52.128;9.986;2023-04-03T01:48:47;0.40;99.90
12370;DHT22;6249;52.128;9.986;2023-04-03T01:52:10;0.40;99.90
12370;DHT22;6249;52.128;9.986;2023-04-03T01:55:31;0.30;99.90
12370;DHT22;6249;52.128;9.986;2023-04-03T01:58:51;0.30;99.90
12370;DHT22;6249;52.128;9.986;2023-04-03T02:02:14;0.30;99.90
12370;DHT22;6249;52.128;9.986;2023-04-03T02:05:38;0.30;99.90
12370;DHT22;6249;52.128;9.986;2023-04-03T02:08:59;0.40;99.90
12370;DHT22;6249;52.128;9.986;2023-04-03T02:12:19;0.20;99.90
12370;DHT22;6249;52.128;9.986;2023-04-03T02:15:42;0.30;99.90
12370;DHT22;6249;52.128;9.986;2023-04-03T02:19:03;0.20;99.90
12370;DHT22;6249;52.128;9.986;2023-04-03T02:22:26;0.10;99.90
12370;DHT22;6249;52.128;9.986;2023-04-03T02:25:46;0.00;99.90
12370;DHT22;6249;52.128;9.986;2023-04-03T02:29:09;-0.10;99.90
12370;DHT22;6249;52.128;9.986;2023-04-03T02:32:30;-0.20;99.90
12370;DHT22;6249;52.128;9.986;2023-04-03T02:35:55;-0.30;99.90
12370;DHT22;6249;52.128;9.986;2023-04-03T02:39:15;-0.30;99.90
12370;DHT22;6249;52.128;9.986;2023-04-03T02:42:36;-0.30;99.90
12370;DHT22;6249;52.128;9.986;2023-04-03T02:45:59;-0.40;99.90
12370;DHT22;6249;52.128;9.986;2023-04-03T02:49:22;-0.40;99.90
12370;DHT22;6249;52.128;9.986;2023-04-03T02:52:43;-0.20;99.90
12370;DHT22;6249;52.128;9.986;2023-04-03T02:56:06;-0.30;99.90
12370;DHT22;6249;52.128;9.986;2023-04-03T02:59:29;-0.40;99.90
12370;DHT22;6249;52.128;9.986;2023-04-03T03:02:49;-0.50;99.90
12370;DHT22;6249;52.128;9.986;2023-04-03T03:06:12;-0.60;99.90
12370;DHT22;6249;52.128;9.986;2023-04-03T03:09:33;-0.70;99.90
12370;DHT22;6249;52.128;9.986;2023-04-03T03:12:56;-0.80;99.90
12370;DHT22;6249;52.128;9.986;2023-04-03T03:16:19;-0.70;99.90
12370;DHT22;6249;52.128;9.986;2023-04-03T03:19:40;-0.70;99.90
12370;DHT22;6249;52.128;9.986;2023-04-03T03:23:01;-0.80;99.90
12370;DHT22;6249;52.128;9.986;2023-04-03T03:26:21;-0.80;99.90
12370;DHT22;6249;52.128;9.986;2023-04-03T03:29:42;-0.90;99.90
12370;DHT22;6249;52.128;9.986;2023-04-03T03:33:05;-0.90;99.90
12370;DHT22;6249;52.128;9.986;2023-04-03T03:36:26;-1.00;99.90
12370;DHT22;6249;52.128;9.986;2023-04-03T03:39:46;-1.00;99.90
12370;DHT22;6249;52.128;9.986;2023-04-03T03:43:07;-0.90;99.90
12370;DHT22;6249;52.128;9.986;2023-04-03T03:46:27;-0.90;99.90
12370;DHT22;6249;52.128;9.986;2023-04-03T03:49:48;-0.90;99.90
12370;DHT22;6249;52.128;9.986;2023-04-03T03:53:09;-0.90;99.90
12370;DHT22;6249;52.128;9.986;2023-04-03T03:56:29;-0.90;99.90
12370;DHT22;6249;52.128;9.986;2023-04-03T03:59:53;-0.90;99.90
12370;DHT22;6249;52.128;9.986;2023-04-03T04:03:13;-0.90;99.90
12370;DHT22;6249;52.128;9.986;2023-04-03T04:06:34;-1.00;99.90
12370;DHT22;6249;52.128;9.986;2023-04-03T04:09:54;-1.00;99.90
12370;DHT22;6249;52.128;9.986;2023-04-03T04:13:15;-1.00;99.90
12370;DHT22;6249;52.128;9.986;2023-04-03T04:16:37;-1.10;99.90
12370;DHT22;6249;52.128;9.986;2023-04-03T04:20:02;-1.10;99.90
12370;DHT22;6249;52.128;9.986;2023-04-03T04:23:23;-1.20;99.90
12370;DHT22;6249;52.128;9.986;2023-04-03T04:26:48;-1.20;99.90
12370;DHT22;6249;52.128;9.986;2023-04-03T04:30:09;-1.10;99.90
12370;DHT22;6249;52.128;9.986;2023-04-03T04:33:33;-1.00;99.90
12370;DHT22;6249;52.128;9.986;2023-04-03T04:36:56;-0.90;99.90
12370;DHT22;6249;52.128;9.986;2023-04-03T04:40:19;-0.90;99.90
12370;DHT22;6249;52.128;9.986;2023-04-03T04:43:40;-0.80;99.90
12370;DHT22;6249;52.128;9.986;2023-04-03T04:47:12;-0.80;99.90
12370;DHT22;6249;52.128;9.986;2023-04-03T04:50:32;-0.90;99.90
12370;DHT22;6249;52.128;9.986;2023-04-03T04:53:53;-0.90;99.90
12370;DHT22;6249;52.128;9.986;2023-04-03T04:57:16;-0.80;99.90
12370;DHT22;6249;52.128;9.986;2023-04-03T05:00:38;-0.90;99.90
12370;DHT22;6249;52.128;9.986;2023-04-03T05:04:01;-1.10;99.90
12370;DHT22;6249;52.128;9.986;2023-04-03T05:07:22;-1.10;99.90
12370;DHT22;6249;52.128;9.986;2023-04-03T05:10:46;-1.20;99.90
12370;DHT22;6249;52.128;9.986;2023-04-03T05:14:06;-1.10;99.90
12370;DHT22;6249;52.128;9.986;2023-04-03T05:17:27;-1.20;99.90
12370;DHT22;6249;52.128;9.986;2023-04-03T05:20:49;-1.30;99.90
12370;DHT22;6249;52.128;9.986;2023-04-03T05:24:12;-1.30;99.90
12370;DHT22;6249;52.128;9.986;2023-04-03T05:27:33;-1.30;99.90
12370;DHT22;6249;52.128;9.986;2023-04-03T05:30:55;-1.10;99.90
12370;DHT22;6249;52.128;9.986;2023-04-03T05:34:15;-1.30;99.90
12370;DHT22;6249;52.128;9.986;2023-04-03T05:37:36;-1.30;99.90
12370;DHT22;6249;52.128;9.986;2023-04-03T05:40:57;-1.30;99.90
12370;DHT22;6249;52.128;9.986;2023-04-03T05:44:20;-1.20;99.90
12370;DHT22;6249;52.128;9.986;2023-04-03T05:47:41;-1.10;99.90
12370;DHT22;6249;52.128;9.986;2023-04-03T05:51:01;-1.00;99.90
12370;DHT22;6249;52.128;9.986;2023-04-03T05:54:25;-0.90;99.90
12370;DHT22;6249;52.128;9.986;2023-04-03T05:57:45;-0.80;99.90
12370;DHT22;6249;52.128;9.986;2023-04-03T06:01:06;-0.70;99.90
12370;DHT22;6249;52.128;9.986;2023-04-03T06:04:28;-0.50;99.90
12370;DHT22;6249;52.128;9.986;2023-04-03T06:07:51;-0.40;99.90
12370;DHT22;6249;52.128;9.986;2023-04-03T06:11:11;-0.40;99.90
12370;DHT22;6249;52.128;9.986;2023-04-03T06:14:32;-0.30;99.90
12370;DHT22;6249;52.128;9.986;2023-04-03T06:17:53;-0.20;99.90
12370;DHT22;6249;52.128;9.986;2023-04-03T06:21:15;0.10;99.90
12370;DHT22;6249;52.128;9.986;2023-04-03T06:24:36;0.20;99.90
12370;DHT22;6249;52.128;9.986;2023-04-03T06:27:59;0.30;99.90
12370;DHT22;6249;52.128;9.986;2023-04-03T06:31:20;0.40;99.90
12370;DHT22;6249;52.128;9.986;2023-04-03T06:34:41;0.40;99.90
12370;DHT22;6249;52.128;9.986;2023-04-03T06:38:02;0.40;99.90
12370;DHT22;6249;52.128;9.986;2023-04-03T06:41:27;0.50;99.90
12370;DHT22;6249;52.128;9.986;2023-04-03T06:44:50;0.60;99.90
12370;DHT22;6249;52.128;9.986;2023-04-03T06:48:10;0.60;99.90
12370;DHT22;6249;52.128;9.986;2023-04-03T06:51:31;0.70;99.90
12370;DHT22;6249;52.128;9.986;2023-04-03T06:54:52;0.90;99.90
12370;DHT22;6249;52.128;9.986;2023-04-03T06:58:17;1.40;99.90
12370;DHT22;6249;52.128;9.986;2023-04-03T07:01:40;1.30;99.90
12370;DHT22;6249;52.128;9.986;2023-04-03T07:05:01;1.40;99.90
12370;DHT22;6249;52.128;9.986;2023-04-03T07:08:23;1.70;99.90
12370;DHT22;6249;52.128;9.986;2023-04-03T07:11:46;1.80;99.90
12370;DHT22;6249;52.128;9.986;2023-04-03T07:15:07;2.10;99.90
12370;DHT22;6249;52.128;9.986;2023-04-03T07:18:28;2.40;99.90
12370;DHT22;6249;52.128;9.986;2023-04-03T07:21:51;2.50;99.90
12370;DHT22;6249;52.128;9.986;2023-04-03T07:25:14;2.40;99.90
12370;DHT22;6249;52.128;9.986;2023-04-03T07:28:35;2.70;99.90
12370;DHT22;6249;52.128;9.986;2023-04-03T07:31:57;2.70;99.90
12370;DHT22;6249;52.128;9.986;2023-04-03T07:35:18;2.90;99.90
12370;DHT22;6249;52.128;9.986;2023-04-03T07:38:39;3.20;99.90
12370;DHT22;6249;52.128;9.986;2023-04-03T07:42:00;3.30;99.90
12370;DHT22;6249;52.128;9.986;2023-04-03T07:45:22;3.60;99.90
12370;DHT22;6249;52.128;9.986;2023-04-03T07:48:44;3.90;99.90
12370;DHT22;6249;52.128;9.986;2023-04-03T07:52:06;4.10;99.90
12370;DHT22;6249;52.128;9.986;2023-04-03T07:55:27;4.20;99.90
12370;DHT22;6249;52.128;9.986;2023-04-03T07:58:50;4.30;99.90
12370;DHT22;6249;52.128;9.986;2023-04-03T08:02:12;4.60;99.90
12370;DHT22;6249;52.128;9.986;2023-04-03T08:05:37;4.50;99.90
12370;DHT22;6249;52.128;9.986;2023-04-03T08:08:57;4.90;99.90
12370;DHT22;6249;52.128;9.986;2023-04-03T08:12:19;5.10;99.90
12370;DHT22;6249;52.128;9.986;2023-04-03T08:15:40;5.40;99.90
12370;DHT22;6249;52.128;9.986;2023-04-03T08:19:02;5.50;99.90
12370;DHT22;6249;52.128;9.986;2023-04-03T08:22:23;5.80;99.90
12370;DHT22;6249;52.128;9.986;2023-04-03T08:25:46;6.10;99.90
12370;DHT22;6249;52.128;9.986;2023-04-03T08:29:07;6.50;99.90
12370;DHT22;6249;52.128;9.986;2023-04-03T08:32:27;6.70;99.90
12370;DHT22;6249;52.128;9.986;2023-04-03T08:35:48;6.80;99.90
12370;DHT22;6249;52.128;9.986;2023-04-03T08:39:09;7.20;99.90
12370;DHT22;6249;52.128;9.986;2023-04-03T08:50:31;7.50;99.90
12370;DHT22;6249;52.128;9.986;2023-04-03T08:54:24;8.00;99.60
12370;DHT22;6249;52.128;9.986;2023-04-03T08:57:54;8.20;99.90
12370;DHT22;6249;52.128;9.986;2023-04-03T09:01:30;8.30;99.70
12370;DHT22;6249;52.128;9.986;2023-04-03T09:04:56;8.70;99.00
12370;DHT22;6249;52.128;9.986;2023-04-03T09:27:01;8.80;93.80
12370;DHT22;6249;52.128;9.986;2023-04-03T09:30:25;8.80;93.50
12370;DHT22;6249;52.128;9.986;2023-04-03T09:33:49;9.30;94.00
12370;DHT22;6249;52.128;9.986;2023-04-03T09:37:35;9.40;93.10
12370;DHT22;6249;52.128;9.986;2023-04-03T09:41:13;9.50;91.40
12370;DHT22;6249;52.128;9.986;2023-04-03T09:44:37;9.80;91.80
12370;DHT22;6249;52.128;9.986;2023-04-03T09:51:34;10.50;89.10
12370;DHT22;6249;52.128;9.986;2023-04-03T09:55:08;10.40;87.90
12370;DHT22;6249;52.128;9.986;2023-04-03T09:58:39;9.80;90.70
12370;DHT22;6249;52.128;9.986;2023-04-03T10:02:37;9.60;91.80
12370;DHT22;6249;52.128;9.986;2023-04-03T10:05:59;9.40;91.40
12370;DHT22;6249;52.128;9.986;2023-04-03T10:12:42;9.20;92.20
12370;DHT22;6249;52.128;9.986;2023-04-03T10:16:14;9.30;92.20
12370;DHT22;6249;52.128;9.986;2023-04-03T10:34:10;10.30;75.00
12370;DHT22;6249;52.128;9.986;2023-04-03T10:45:17;9.80;82.90
12370;DHT22;6249;52.128;9.986;2023-04-03T10:49:01;10.10;80.20
12370;DHT22;6249;52.128;9.986;2023-04-03T10:59:59;14.00;69.10
12370;DHT22;6249;52.128;9.986;2023-04-03T11:03:34;14.90;62.60
12370;DHT22;6249;52.128;9.986;2023-04-03T11:07:12;15.30;62.30
12370;DHT22;6249;52.128;9.986;2023-04-03T11:10:44;15.80;56.50
12370;DHT22;6249;52.128;9.986;2023-04-03T11:14:26;15.40;57.00
12370;DHT22;6249;52.128;9.986;2023-04-03T11:18:04;14.40;56.30
12370;DHT22;6249;52.128;9.986;2023-04-03T11:21:35;13.80;58.60
12370;DHT22;6249;52.128;9.986;2023-04-03T11:25:04;13.40;59.00
12370;DHT22;6249;52.128;9.986;2023-04-03T11:28:26;13.30;61.40
12370;DHT22;6249;52.128;9.986;2023-04-03T11:35:48;15.20;56.30
12370;DHT22;6249;52.128;9.986;2023-04-03T11:39:34;14.90;56.30
12370;DHT22;6249;52.128;9.986;2023-04-03T11:43:29;14.90;54.90
12370;DHT22;6249;52.128;9.986;2023-04-03T11:53:51;13.20;56.60
12370;DHT22;6249;52.128;9.986;2023-04-03T12:01:09;12.50;58.00
12370;DHT22;6249;52.128;9.986;2023-04-03T12:04:32;12.20;58.50
12370;DHT22;6249;52.128;9.986;2023-04-03T12:08:25;12.00;60.20
12370;DHT22;6249;52.128;9.986;2023-04-03T12:11:45;12.00;63.10
12370;DHT22;6249;52.128;9.986;2023-04-03T12:15:23;12.00;61.60
12370;DHT22;6249;52.128;9.986;2023-04-03T12:22:24;11.90;57.10
12370;DHT22;6249;52.128;9.986;2023-04-03T12:25:50;11.40;60.00
12370;DHT22;6249;52.128;9.986;2023-04-03T12:33:04;11.20;65.30
12370;DHT22;6249;52.128;9.986;2023-04-03T12:37:01;11.20;64.80
12370;DHT22;6249;52.128;9.986;2023-04-03T12:44:21;11.70;64.70
12370;DHT22;6249;52.128;9.986;2023-04-03T12:47:49;11.80;65.20
12370;DHT22;6249;52.128;9.986;2023-04-03T12:51:16;11.90;65.30
12370;DHT22;6249;52.128;9.986;2023-04-03T12:54:39;12.40;66.90
12370;DHT22;6249;52.128;9.986;2023-04-03T12:58:37;14.40;61.20
12370;DHT22;6249;52.128;9.986;2023-04-03T13:02:01;16.90;55.90
12370;DHT22;6249;52.128;9.986;2023-04-03T13:05:28;16.90;52.30
12370;DHT22;6249;52.128;9.986;2023-04-03T13:08:53;17.10;51.00
12370;DHT22;6249;52.128;9.986;2023-04-03T13:12:17;16.80;50.60
12370;DHT22;6249;52.128;9.986;2023-04-03T13:15:43;16.80;52.50
12370;DHT22;6249;52.128;9.986;2023-04-03T13:19:05;17.60;52.90
12370;DHT22;6249;52.128;9.986;2023-04-03T13:22:45;18.20;52.00
12370;DHT22;6249;52.128;9.986;2023-04-03T13:26:08;19.40;48.50
12370;DHT22;6249;52.128;9.986;2023-04-03T13:29:36;20.50;47.60
12370;DHT22;6249;52.128;9.986;2023-04-03T13:32:59;21.40;44.60
12370;DHT22;6249;52.128;9.986;2023-04-03T13:36:27;22.50;41.30
12370;DHT22;6249;52.128;9.986;2023-04-03T13:43:33;22.90;38.20
12370;DHT22;6249;52.128;9.986;2023-04-03T13:50:22;23.40;35.40
12370;DHT22;6249;52.128;9.986;2023-04-03T13:53:56;23.80;34.00
12370;DHT22;6249;52.128;9.986;2023-04-03T13:57:17;24.00;33.20
12370;DHT22;6249;52.128;9.986;2023-04-03T14:01:14;22.90;31.50
12370;DHT22;6249;52.128;9.986;2023-04-03T14:08:04;22.90;33.40
12370;DHT22;6249;52.128;9.986;2023-04-03T14:11:29;23.70;33.20
12370;DHT22;6249;52.128;9.986;2023-04-03T14:14:50;24.20;32.00
12370;DHT22;6249;52.128;9.986;2023-04-03T14:18:16;24.30;31.30
12370;DHT22;6249;52.128;9.986;2023-04-03T14:21:39;23.10;32.70
12370;DHT22;6249;52.128;9.986;2023-04-03T14:25:02;23.00;30.40
12370;DHT22;6249;52.128;9.986;2023-04-03T14:28:25;21.10;32.00
12370;DHT22;6249;52.128;9.986;2023-04-03T14:31:47;19.10;35.60
12370;DHT22;6249;52.128;9.986;2023-04-03T14:35:10;19.70;35.40
12370;DHT22;6249;52.128;9.986;2023-04-03T14:38:33;20.50;35.60
12370;DHT22;6249;52.128;9.986;2023-04-03T14:41:54;20.90;33.20
12370;DHT22;6249;52.128;9.986;2023-04-03T14:45:21;19.50;33.10
12370;DHT22;6249;52.128;9.986;2023-04-03T14:48:42;18.50;34.30
12370;DHT22;6249;52.128;9.986;2023-04-03T14:52:05;17.70;36.20
12370;DHT22;6249;52.128;9.986;2023-04-03T14:55:26;17.50;36.30
12370;DHT22;6249;52.128;9.986;2023-04-03T14:58:49;18.60;37.00
12370;DHT22;6249;52.128;9.986;2023-04-03T15:05:52;17.50;37.00
12370;DHT22;6249;52.128;9.986;2023-04-03T15:09:23;16.70;38.20
12370;DHT22;6249;52.128;9.986;2023-04-03T15:12:44;15.80;38.80
12370;DHT22;6249;52.128;9.986;2023-04-03T15:16:18;15.70;40.20
12370;DHT22;6249;52.128;9.986;2023-04-03T15:19:41;17.50;38.60
12370;DHT22;6249;52.128;9.986;2023-04-03T15:23:05;18.40;36.90
12370;DHT22;6249;52.128;9.986;2023-04-03T15:26:29;19.80;36.40
12370;DHT22;6249;52.128;9.986;2023-04-03T15:29:52;21.10;34.10
12370;DHT22;6249;52.128;9.986;2023-04-03T15:33:13;20.70;32.80
12370;DHT22;6249;52.128;9.986;2023-04-03T15:36:34;19.20;33.30
12370;DHT22;6249;52.128;9.986;2023-04-03T15:39:54;17.20;35.80
12370;DHT22;6249;52.128;9.986;2023-04-03T15:43:15;16.20;38.50
12370;DHT22;6249;52.128;9.986;2023-04-03T15:46:36;15.40;39.70
12370;DHT22;6249;52.128;9.986;2023-04-03T15:50:00;14.70;41.70
12370;DHT22;6249;52.128;9.986;2023-04-03T15:53:25;14.10;44.60
12370;DHT22;6249;52.128;9.986;2023-04-03T15:56:48;13.60;43.00
12370;DHT22;6249;52.128;9.986;2023-04-03T16:00:10;14.10;45.90
12370;DHT22;6249;52.128;9.986;2023-04-03T16:03:33;16.20;42.20
12370;DHT22;6249;52.128;9.986;2023-04-03T16:06:54;18.10;38.20
12370;DHT22;6249;52.128;9.986;2023-04-03T16:10:17;18.70;36.60
12370;DHT22;6249;52.128;9.986;2023-04-03T16:13:40;17.70;37.50
12370;DHT22;6249;52.128;9.986;2023-04-03T16:17:03;16.80;39.10
12370;DHT22;6249;52.128;9.986;2023-04-03T16:20:26;15.80;41.10
12370;DHT22;6249;52.128;9.986;2023-04-03T16:23:53;14.60;42.30
12370;DHT22;6249;52.128;9.986;2023-04-03T16:27:16;13.90;45.00
12370;DHT22;6249;52.128;9.986;2023-04-03T16:30:36;13.60;45.20
12370;DHT22;6249;52.128;9.986;2023-04-03T16:33:57;13.10;45.30
12370;DHT22;6249;52.128;9.986;2023-04-03T16:37:17;12.70;48.40
12370;DHT22;6249;52.128;9.986;2023-04-03T16:40:38;12.40;49.00
12370;DHT22;6249;52.128;9.986;2023-04-03T16:43:59;11.90;47.50
12370;DHT22;6249;52.128;9.986;2023-04-03T16:47:19;11.70;49.70
12370;DHT22;6249;52.128;9.986;2023-04-03T16:50:40;11.50;49.70
12370;DHT22;6249;52.128;9.986;2023-04-03T16:54:01;11.30;51.70
12370;DHT22;6249;52.128;9.986;2023-04-03T16:57:22;10.80;53.00
12370;DHT22;6249;52.128;9.986;2023-04-03T17:00:44;11.10;52.40
12370;DHT22;6249;52.128;9.986;2023-04-03T17:04:07;11.00;54.10
12370;DHT22;6249;52.128;9.986;2023-04-03T17:07:28;11.00;53.40
12370;DHT22;6249;52.128;9.986;2023-04-03T17:10:48;11.10;53.00
12370;DHT22;6249;52.128;9.986;2023-04-03T17:14:11;10.80;53.20
12370;DHT22;6249;52.128;9.986;2023-04-03T17:17:31;10.30;54.80
12370;DHT22;6249;52.128;9.986;2023-04-03T17:20:52;10.10;55.50
12370;DHT22;6249;52.128;9.986;2023-04-03T17:24:15;9.90;57.50
12370;DHT22;6249;52.128;9.986;2023-04-03T17:27:38;9.70;59.00
12370;DHT22;6249;52.128;9.986;2023-04-03T17:31:01;9.60;60.20
12370;DHT22;6249;52.128;9.986;2023-04-03T17:34:23;9.40;60.60
12370;DHT22;6249;52.128;9.986;2023-04-03T17:37:43;9.30;60.50
12370;DHT22;6249;52.128;9.986;2023-04-03T17:41:07;9.00;60.50
12370;DHT22;6249;52.128;9.986;2023-04-03T17:44:27;9.00;61.20
12370;DHT22;6249;52.128;9.986;2023-04-03T17:47:50;9.00;62.60
12370;DHT22;6249;52.128;9.986;2023-04-03T17:51:14;8.70;62.70
12370;DHT22;6249;52.128;9.986;2023-04-03T17:54:34;8.60;64.40
12370;DHT22;6249;52.128;9.986;2023-04-03T17:58:03;8.40;66.20
12370;DHT22;6249;52.128;9.986;2023-04-03T18:01:27;8.10;66.40
12370;DHT22;6249;52.128;9.986;2023-04-03T18:04:52;7.90;68.40
12370;DHT22;6249;52.128;9.986;2023-04-03T18:08:13;7.60;71.50
12370;DHT22;6249;52.128;9.986;2023-04-03T18:11:34;7.50;73.20
12370;DHT22;6249;52.128;9.986;2023-04-03T18:14:58;7.40;75.30
12370;DHT22;6249;52.128;9.986;2023-04-03T18:18:19;7.20;76.50
12370;DHT22;6249;52.128;9.986;2023-04-03T18:21:42;7.20;77.70
12370;DHT22;6249;52.128;9.986;2023-04-03T18:25:05;7.10;78.20
12370;DHT22;6249;52.128;9.986;2023-04-03T18:28:28;7.20;77.70
12370;DHT22;6249;52.128;9.986;2023-04-03T18:31:53;7.10;78.10
12370;DHT22;6249;52.128;9.986;2023-04-03T18:35:16;7.00;79.00
12370;DHT22;6249;52.128;9.986;2023-04-03T18:38:37;6.80;79.20
12370;DHT22;6249;52.128;9.986;2023-04-03T18:42:10;6.70;80.00
12370;DHT22;6249;52.128;9.986;2023-04-03T18:45:34;6.70;81.30
12370;DHT22;6249;52.128;9.986;2023-04-03T18:48:54;6.60;81.30
12370;DHT22;6249;52.128;9.986;2023-04-03T18:52:15;6.50;81.50
12370;DHT22;6249;52.128;9.986;2023-04-03T18:55:36;6.50;81.40
12370;DHT22;6249;52.128;9.986;2023-04-03T18:58:56;6.40;80.70
12370;DHT22;6249;52.128;9.986;2023-04-03T19:02:17;6.40;81.50
12370;DHT22;6249;52.128;9.986;2023-04-03T19:05:41;6.30;81.80
12370;DHT22;6249;52.128;9.986;2023-04-03T19:09:05;6.30;82.10
12370;DHT22;6249;52.128;9.986;2023-04-03T19:12:26;6.20;82.50
12370;DHT22;6249;52.128;9.986;2023-04-03T19:15:51;6.00;84.00
12370;DHT22;6249;52.128;9.986;2023-04-03T19:19:18;5.80;85.00
12370;DHT22;6249;52.128;9.986;2023-04-03T19:22:39;5.60;87.40
12370;DHT22;6249;52.128;9.986;2023-04-03T19:26:05;5.50;88.40
12370;DHT22;6249;52.128;9.986;2023-04-03T19:29:25;5.30;90.00
12370;DHT22;6249;52.128;9.986;2023-04-03T19:32:50;5.10;91.20
12370;DHT22;6249;52.128;9.986;2023-04-03T19:36:14;5.00;91.80
12370;DHT22;6249;52.128;9.986;2023-04-03T19:39:38;4.90;92.50
12370;DHT22;6249;52.128;9.986;2023-04-03T19:42:58;6.00;94.00
12370;DHT22;6249;52.128;9.986;2023-04-03T19:46:26;4.70;94.00
12370;DHT22;6249;52.128;9.986;2023-04-03T19:49:52;4.60;94.80
12370;DHT22;6249;52.128;9.986;2023-04-03T19:53:12;4.60;94.80
12370;DHT22;6249;52.128;9.986;2023-04-03T19:56:38;4.50;95.00
12370;DHT22;6249;52.128;9.986;2023-04-03T19:59:59;4.40;94.70
12370;DHT22;6249;52.128;9.986;2023-04-03T20:03:20;5.40;95.40
12370;DHT22;6249;52.128;9.986;2023-04-03T20:06:41;4.30;94.40
12370;DHT22;6249;52.128;9.986;2023-04-03T20:10:01;4.20;94.70
12370;DHT22;6249;52.128;9.986;2023-04-03T20:13:24;4.20;94.60
12370;DHT22;6249;52.128;9.986;2023-04-03T20:16:45;4.30;93.80
12370;DHT22;6249;52.128;9.986;2023-04-03T20:20:07;4.20;93.70
12370;DHT22;6249;52.128;9.986;2023-04-03T20:23:30;4.30;93.40
12370;DHT22;6249;52.128;9.986;2023-04-03T20:26:51;5.20;94.00
12370;DHT22;6249;52.128;9.986;2023-04-03T20:30:12;4.30;93.40
12370;DHT22;6249;52.128;9.986;2023-04-03T20:33:33;4.30;93.50
12370;DHT22;6249;52.128;9.986;2023-04-03T20:36:57;4.30;94.50
12370;DHT22;6249;52.128;9.986;2023-04-03T20:40:19;4.10;95.80
12370;DHT22;6249;52.128;9.986;2023-04-03T20:43:43;3.90;96.70
12370;DHT22;6249;52.128;9.986;2023-04-03T20:47:05;3.60;97.20
12370;DHT22;6249;52.128;9.986;2023-04-03T20:50:26;3.50;97.90
12370;DHT22;6249;52.128;9.986;2023-04-03T20:53:48;3.40;98.40
12370;DHT22;6249;52.128;9.986;2023-04-03T20:57:08;3.40;98.70
12370;DHT22;6249;52.128;9.986;2023-04-03T21:00:30;3.30;99.40
12370;DHT22;6249;52.128;9.986;2023-04-03T21:04:08;3.20;99.60
12370;DHT22;6249;52.128;9.986;2023-04-03T21:22:29;2.80;99.90
12370;DHT22;6249;52.128;9.986;2023-04-03T21:25:52;2.70;99.90
12370;DHT22;6249;52.128;9.986;2023-04-03T21:29:13;2.60;99.90
12370;DHT22;6249;52.128;9.986;2023-04-03T21:32:37;2.60;99.90
12370;DHT22;6249;52.128;9.986;2023-04-03T21:36:00;2.50;99.90
12370;DHT22;6249;52.128;9.986;2023-04-03T21:39:21;2.40;99.90
12370;DHT22;6249;52.128;9.986;2023-04-03T21:42:42;2.30;99.90
12370;DHT22;6249;52.128;9.986;2023-04-03T21:46:05;2.20;99.90
12370;DHT22;6249;52.128;9.986;2023-04-03T21:49:28;2.10;99.90
12370;DHT22;6249;52.128;9.986;2023-04-03T21:52:52;2.10;99.90
12370;DHT22;6249;52.128;9.986;2023-04-03T21:56:15;2.00;99.90
12370;DHT22;6249;52.128;9.986;2023-04-03T21:59:35;1.90;99.90
12370;DHT22;6249;52.128;9.986;2023-04-03T22:02:57;1.90;99.90
12370;DHT22;6249;52.128;9.986;2023-04-03T22:06:17;1.80;99.90
12370;DHT22;6249;52.128;9.986;2023-04-03T22:09:38;1.80;99.90
12370;DHT22;6249;52.128;9.986;2023-04-03T22:13:01;1.70;99.90
12370;DHT22;6249;52.128;9.986;2023-04-03T22:16:22;1.70;99.90
12370;DHT22;6249;52.128;9.986;2023-04-03T22:19:45;1.70;99.90
12370;DHT22;6249;52.128;9.986;2023-04-03T22:23:06;1.70;99.90
12370;DHT22;6249;52.128;9.986;2023-04-03T22:26:29;1.70;99.90
12370;DHT22;6249;52.128;9.986;2023-04-03T22:29:52;1.60;99.90
12370;DHT22;6249;52.128;9.986;2023-04-03T22:33:12;1.50;99.90
12370;DHT22;6249;52.128;9.986;2023-04-03T22:36:35;1.40;99.90
12370;DHT22;6249;52.128;9.986;2023-04-03T22:39:58;1.40;99.90
12370;DHT22;6249;52.128;9.986;2023-04-03T22:43:18;1.30;99.90
12370;DHT22;6249;52.128;9.986;2023-04-03T22:46:39;1.30;99.90
12370;DHT22;6249;52.128;9.986;2023-04-03T22:49:59;1.20;99.90
12370;DHT22;6249;52.128;9.986;2023-04-03T22:53:20;1.10;99.90
12370;DHT22;6249;52.128;9.986;2023-04-03T22:56:40;1.10;99.90
12370;DHT22;6249;52.128;9.986;2023-04-03T23:00:01;1.10;99.90
12370;DHT22;6249;52.128;9.986;2023-04-03T23:03:23;1.10;99.90
12370;DHT22;6249;52.128;9.986;2023-04-03T23:06:44;1.10;99.90
12370;DHT22;6249;52.128;9.986;2023-04-03T23:10:04;1.00;99.90
12370;DHT22;6249;52.128;9.986;2023-04-03T23:13:25;0.90;99.90
12370;DHT22;6249;52.128;9.986;2023-04-03T23:16:49;0.80;99.90
12370;DHT22;6249;52.128;9.986;2023-04-03T23:20:12;0.80;99.90
12370;DHT22;6249;52.128;9.986;2023-04-03T23:23:32;0.80;99.90
12370;DHT22;6249;52.128;9.986;2023-04-03T23:26:53;0.70;99.90
12370;DHT22;6249;52.128;9.986;2023-04-03T23:30:14;0.80;99.90
12370;DHT22;6249;52.128;9.986;2023-04-03T23:33:36;0.80;99.90
12370;DHT22;6249;52.128;9.986;2023-04-03T23:36:57;0.90;99.90
12370;DHT22;6249;52.128;9.986;2023-04-03T23:40:18;1.00;99.90
12370;DHT22;6249;52.128;9.986;2023-04-03T23:43:43;1.10;99.90
12370;DHT22;6249;52.128;9.986;2023-04-03T23:47:05;1.00;99.90
12370;DHT22;6249;52.128;9.986;2023-04-03T23:50:26;1.00;99.90
12370;DHT22;6249;52.128;9.986;2023-04-03T23:53:49;1.00;99.90
12370;DHT22;6249;52.128;9.986;2023-04-03T23:57:10;0.80;99.90
